sensor_id;sensor_type;location;lat;lon;timestamp;temperature;humidity
37938;DHT22;23763;48.130;11.602;2022-12-18T00:00:47;-3.40;99.90
37938;DHT22;23763;48.130;11.602;2022-12-18T00:03:14;-3.30;99.90
37938;DHT22;23763;48.130;11.602;2022-12-18T00:05:50;-3.40;99.90
37938;DHT22;23763;48.130;11.602;2022-12-18T00:08:16;-3.40;99.90
37938;DHT22;23763;48.130;11.602;2022-12-18T00:10:42;-3.40;99.90
37938;DHT22;23763;48.130;11.602;2022-12-18T00:13:09;-3.30;99.90
37938;DHT22;23763;48.130;11.602;2022-12-18T00:15:36;-3.30;99.90
37938;DHT22;23763;48.130;11.602;2022-12-18T00:18:02;-3.20;99.90
37938;DHT22;23763;48.130;11.602;2022-12-18T00:20:28;-3.10;99.90
37938;DHT22;23763;48.130;11.602;2022-12-18T00:22:54;-2.90;99.90
37938;DHT22;23763;48.130;11.602;2022-12-18T00:25:19;-3.50;99.90
37938;DHT22;23763;48.130;11.602;2022-12-18T00:27:45;-3.40;99.90
37938;DHT22;23763;48.130;11.602;2022-12-18T00:30:11;-3.50;99.90
37938;DHT22;23763;48.130;11.602;2022-12-18T00:32:37;-3.60;99.90
37938;DHT22;23763;48.130;11.602;2022-12-18T00:35:03;-3.70;99.90
37938;DHT22;23763;48.130;11.602;2022-12-18T00:37:29;-3.50;99.90
37938;DHT22;23763;48.130;11.602;2022-12-18T00:39:55;-3.40;99.90
37938;DHT22;23763;48.130;11.602;2022-12-18T00:42:21;-3.50;99.90
37938;DHT22;23763;48.130;11.602;2022-12-18T00:45:05;-3.50;99.90
37938;DHT22;23763;48.130;11.602;2022-12-18T00:47:46;-3.50;99.90
37938;DHT22;23763;48.130;11.602;2022-12-18T00:50:12;-3.50;99.90
37938;DHT22;23763;48.130;11.602;2022-12-18T00:52:41;-3.60;99.90
37938;DHT22;23763;48.130;11.602;2022-12-18T00:55:07;-3.50;99.90
37938;DHT22;23763;48.130;11.602;2022-12-18T00:57:33;-3.50;99.90
37938;DHT22;23763;48.130;11.602;2022-12-18T00:59:58;-3.50;99.90
37938;DHT22;23763;48.130;11.602;2022-12-18T01:02:24;-3.50;99.90
37938;DHT22;23763;48.130;11.602;2022-12-18T01:04:50;-3.50;99.90
37938;DHT22;23763;48.130;11.602;2022-12-18T01:07:15;-3.60;99.90
37938;DHT22;23763;48.130;11.602;2022-12-18T01:09:41;-3.60;99.90
37938;DHT22;23763;48.130;11.602;2022-12-18T01:12:07;-3.60;99.90
37938;DHT22;23763;48.130;11.602;2022-12-18T01:14:32;-3.60;99.90
37938;DHT22;23763;48.130;11.602;2022-12-18T01:16:58;-3.60;99.90
37938;DHT22;23763;48.130;11.602;2022-12-18T01:19:24;-3.50;99.90
37938;DHT22;23763;48.130;11.602;2022-12-18T01:21:49;-3.50;99.90
37938;DHT22;23763;48.130;11.602;2022-12-18T01:24:15;-3.50;99.90
37938;DHT22;23763;48.130;11.602;2022-12-18T01:26:41;-3.40;99.90
37938;DHT22;23763;48.130;11.602;2022-12-18T01:29:06;-3.50;99.90
37938;DHT22;23763;48.130;11.602;2022-12-18T01:31:33;-3.50;99.90
37938;DHT22;23763;48.130;11.602;2022-12-18T01:34:03;-3.60;99.90
37938;DHT22;23763;48.130;11.602;2022-12-18T01:36:32;-3.40;99.90
37938;DHT22;23763;48.130;11.602;2022-12-18T01:39:00;-3.50;99.90
37938;DHT22;23763;48.130;11.602;2022-12-18T01:41:28;-3.40;99.90
37938;DHT22;23763;48.130;11.602;2022-12-18T01:47:20;-3.50;99.90
37938;DHT22;23763;48.130;11.602;2022-12-18T01:49:47;-3.60;99.90
37938;DHT22;23763;48.130;11.602;2022-12-18T01:52:13;-3.50;99.90
37938;DHT22;23763;48.130;11.602;2022-12-18T01:54:39;-3.60;99.90
37938;DHT22;23763;48.130;11.602;2022-12-18T01:57:05;-3.50;99.90
37938;DHT22;23763;48.130;11.602;2022-12-18T01:59:32;-3.40;99.90
37938;DHT22;23763;48.130;11.602;2022-12-18T02:01:59;-3.60;99.90
37938;DHT22;23763;48.130;11.602;2022-12-18T02:04:26;-3.20;99.90
37938;DHT22;23763;48.130;11.602;2022-12-18T02:07:20;-3.50;99.90
37938;DHT22;23763;48.130;11.602;2022-12-18T02:09:57;-3.50;99.90
37938;DHT22;23763;48.130;11.602;2022-12-18T02:12:39;-3.40;99.90
37938;DHT22;23763;48.130;11.602;2022-12-18T02:18:24;-3.40;99.90
37938;DHT22;23763;48.130;11.602;2022-12-18T02:21:00;-3.40;99.90
37938;DHT22;23763;48.130;11.602;2022-12-18T02:26:15;-3.50;99.90
37938;DHT22;23763;48.130;11.602;2022-12-18T02:28:57;-3.60;99.90
37938;DHT22;23763;48.130;11.602;2022-12-18T02:31:27;-3.50;99.90
37938;DHT22;23763;48.130;11.602;2022-12-18T02:34:00;-3.50;99.90
37938;DHT22;23763;48.130;11.602;2022-12-18T02:36:33;-3.50;99.90
37938;DHT22;23763;48.130;11.602;2022-12-18T02:39:02;-3.50;99.90
37938;DHT22;23763;48.130;11.602;2022-12-18T02:41:28;-3.40;99.90
37938;DHT22;23763;48.130;11.602;2022-12-18T02:43:57;-3.50;99.90
37938;DHT22;23763;48.130;11.602;2022-12-18T02:46:49;-3.50;99.90
37938;DHT22;23763;48.130;11.602;2022-12-18T02:54:44;-3.70;99.90
37938;DHT22;23763;48.130;11.602;2022-12-18T03:00:14;-3.70;99.90
37938;DHT22;23763;48.130;11.602;2022-12-18T03:02:57;-3.60;99.90
37938;DHT22;23763;48.130;11.602;2022-12-18T03:05:34;-3.60;99.90
37938;DHT22;23763;48.130;11.602;2022-12-18T03:08:20;-3.60;99.90
37938;DHT22;23763;48.130;11.602;2022-12-18T03:11:08;-3.60;99.90
37938;DHT22;23763;48.130;11.602;2022-12-18T03:13:58;-3.70;99.90
37938;DHT22;23763;48.130;11.602;2022-12-18T03:16:27;-3.60;99.90
37938;DHT22;23763;48.130;11.602;2022-12-18T03:18:57;-3.60;99.90
37938;DHT22;23763;48.130;11.602;2022-12-18T03:21:30;-3.70;99.90
37938;DHT22;23763;48.130;11.602;2022-12-18T03:23:57;-3.60;99.90
37938;DHT22;23763;48.130;11.602;2022-12-18T03:26:25;-3.60;99.90
37938;DHT22;23763;48.130;11.602;2022-12-18T03:28:59;-3.50;99.90
37938;DHT22;23763;48.130;11.602;2022-12-18T03:31:29;-3.50;99.90
37938;DHT22;23763;48.130;11.602;2022-12-18T03:33:59;-3.60;99.90
37938;DHT22;23763;48.130;11.602;2022-12-18T03:36:29;-3.60;99.90
37938;DHT22;23763;48.130;11.602;2022-12-18T03:38:58;-3.50;99.90
37938;DHT22;23763;48.130;11.602;2022-12-18T03:44:08;-3.60;99.90
37938;DHT22;23763;48.130;11.602;2022-12-18T03:46:40;-3.60;99.90
37938;DHT22;23763;48.130;11.602;2022-12-18T03:49:08;-3.50;99.90
37938;DHT22;23763;48.130;11.602;2022-12-18T03:54:03;-3.30;99.90
37938;DHT22;23763;48.130;11.602;2022-12-18T03:56:33;-3.30;99.90
37938;DHT22;23763;48.130;11.602;2022-12-18T03:59:03;-3.40;99.90
37938;DHT22;23763;48.130;11.602;2022-12-18T04:01:45;-3.40;99.90
37938;DHT22;23763;48.130;11.602;2022-12-18T04:04:12;-3.30;99.90
37938;DHT22;23763;48.130;11.602;2022-12-18T04:06:40;-3.40;99.90
37938;DHT22;23763;48.130;11.602;2022-12-18T04:09:07;-3.50;99.90
37938;DHT22;23763;48.130;11.602;2022-12-18T04:11:33;-3.60;99.90
37938;DHT22;23763;48.130;11.602;2022-12-18T04:13:59;-3.50;99.90
37938;DHT22;23763;48.130;11.602;2022-12-18T04:16:25;-3.60;99.90
37938;DHT22;23763;48.130;11.602;2022-12-18T04:18:52;-3.50;99.90
37938;DHT22;23763;48.130;11.602;2022-12-18T04:21:18;-3.40;99.90
37938;DHT22;23763;48.130;11.602;2022-12-18T04:23:44;-3.40;99.90
37938;DHT22;23763;48.130;11.602;2022-12-18T04:26:10;-3.40;99.90
37938;DHT22;23763;48.130;11.602;2022-12-18T04:28:36;-3.40;99.90
37938;DHT22;23763;48.130;11.602;2022-12-18T04:31:01;-3.40;99.90
37938;DHT22;23763;48.130;11.602;2022-12-18T04:33:27;-3.40;99.90
37938;DHT22;23763;48.130;11.602;2022-12-18T04:35:53;-3.50;99.90
37938;DHT22;23763;48.130;11.602;2022-12-18T04:38:19;-3.50;99.90
37938;DHT22;23763;48.130;11.602;2022-12-18T04:40:44;-3.60;99.90
37938;DHT22;23763;48.130;11.602;2022-12-18T04:43:10;-3.50;99.90
37938;DHT22;23763;48.130;11.602;2022-12-18T04:45:35;-3.50;99.90
37938;DHT22;23763;48.130;11.602;2022-12-18T04:48:02;-3.60;99.90
37938;DHT22;23763;48.130;11.602;2022-12-18T04:50:28;-3.50;99.90
37938;DHT22;23763;48.130;11.602;2022-12-18T04:52:54;-3.50;99.90
37938;DHT22;23763;48.130;11.602;2022-12-18T04:55:20;-3.40;99.90
37938;DHT22;23763;48.130;11.602;2022-12-18T04:57:45;-3.40;99.90
37938;DHT22;23763;48.130;11.602;2022-12-18T05:00:11;-3.60;99.90
37938;DHT22;23763;48.130;11.602;2022-12-18T05:02:38;-3.60;99.90
37938;DHT22;23763;48.130;11.602;2022-12-18T05:05:04;-3.50;99.90
37938;DHT22;23763;48.130;11.602;2022-12-18T05:07:29;-3.40;99.90
37938;DHT22;23763;48.130;11.602;2022-12-18T05:09:55;-3.30;99.90
37938;DHT22;23763;48.130;11.602;2022-12-18T05:12:23;-3.30;99.90
37938;DHT22;23763;48.130;11.602;2022-12-18T05:14:49;-3.40;99.90
37938;DHT22;23763;48.130;11.602;2022-12-18T05:17:14;-3.40;99.90
37938;DHT22;23763;48.130;11.602;2022-12-18T05:19:40;-3.60;99.90
37938;DHT22;23763;48.130;11.602;2022-12-18T05:22:09;-3.70;99.90
37938;DHT22;23763;48.130;11.602;2022-12-18T05:24:35;-3.60;99.90
37938;DHT22;23763;48.130;11.602;2022-12-18T05:27:01;-3.70;99.90
37938;DHT22;23763;48.130;11.602;2022-12-18T05:29:26;-3.60;99.90
37938;DHT22;23763;48.130;11.602;2022-12-18T05:31:52;-3.50;99.90
37938;DHT22;23763;48.130;11.602;2022-12-18T05:34:18;-3.50;99.90
37938;DHT22;23763;48.130;11.602;2022-12-18T05:36:43;-3.50;99.90
37938;DHT22;23763;48.130;11.602;2022-12-18T05:39:09;-3.50;99.90
37938;DHT22;23763;48.130;11.602;2022-12-18T05:41:35;-3.50;99.90
37938;DHT22;23763;48.130;11.602;2022-12-18T05:44:00;-3.40;99.90
37938;DHT22;23763;48.130;11.602;2022-12-18T05:46:26;-3.40;99.90
37938;DHT22;23763;48.130;11.602;2022-12-18T05:48:52;-3.30;99.90
37938;DHT22;23763;48.130;11.602;2022-12-18T05:51:20;-3.50;99.90
37938;DHT22;23763;48.130;11.602;2022-12-18T05:54:16;-3.40;99.90
37938;DHT22;23763;48.130;11.602;2022-12-18T05:56:41;-3.50;99.90
37938;DHT22;23763;48.130;11.602;2022-12-18T05:59:07;-3.50;99.90
37938;DHT22;23763;48.130;11.602;2022-12-18T06:01:32;-3.50;99.90
37938;DHT22;23763;48.130;11.602;2022-12-18T06:03:58;-3.60;99.90
37938;DHT22;23763;48.130;11.602;2022-12-18T06:06:26;-3.60;99.90
37938;DHT22;23763;48.130;11.602;2022-12-18T06:08:52;-3.50;99.90
37938;DHT22;23763;48.130;11.602;2022-12-18T06:11:26;-3.60;99.90
37938;DHT22;23763;48.130;11.602;2022-12-18T06:13:53;-3.60;99.90
37938;DHT22;23763;48.130;11.602;2022-12-18T06:16:18;-3.60;99.90
37938;DHT22;23763;48.130;11.602;2022-12-18T06:18:44;-3.70;99.90
37938;DHT22;23763;48.130;11.602;2022-12-18T06:21:10;-3.70;99.90
37938;DHT22;23763;48.130;11.602;2022-12-18T06:23:36;-3.70;99.90
37938;DHT22;23763;48.130;11.602;2022-12-18T06:26:06;-3.70;99.90
37938;DHT22;23763;48.130;11.602;2022-12-18T06:28:32;-3.70;99.90
37938;DHT22;23763;48.130;11.602;2022-12-18T06:30:58;-3.60;99.90
37938;DHT22;23763;48.130;11.602;2022-12-18T06:33:26;-3.60;99.90
37938;DHT22;23763;48.130;11.602;2022-12-18T06:35:53;-3.60;99.90
37938;DHT22;23763;48.130;11.602;2022-12-18T06:38:19;-3.70;99.90
37938;DHT22;23763;48.130;11.602;2022-12-18T06:40:45;-3.80;99.90
37938;DHT22;23763;48.130;11.602;2022-12-18T06:43:10;-3.90;99.90
37938;DHT22;23763;48.130;11.602;2022-12-18T06:45:36;-3.90;99.90
37938;DHT22;23763;48.130;11.602;2022-12-18T06:48:01;-3.90;99.90
37938;DHT22;23763;48.130;11.602;2022-12-18T06:50:27;-3.80;99.90
37938;DHT22;23763;48.130;11.602;2022-12-18T06:52:53;-3.90;99.90
37938;DHT22;23763;48.130;11.602;2022-12-18T06:55:18;-3.90;99.90
37938;DHT22;23763;48.130;11.602;2022-12-18T06:57:44;-3.90;99.90
37938;DHT22;23763;48.130;11.602;2022-12-18T07:00:10;-3.80;99.90
37938;DHT22;23763;48.130;11.602;2022-12-18T07:02:35;-3.90;99.90
37938;DHT22;23763;48.130;11.602;2022-12-18T07:05:01;-3.80;99.90
37938;DHT22;23763;48.130;11.602;2022-12-18T07:07:26;-3.80;99.90
37938;DHT22;23763;48.130;11.602;2022-12-18T07:09:52;-3.80;99.90
37938;DHT22;23763;48.130;11.602;2022-12-18T07:12:18;-3.80;99.90
37938;DHT22;23763;48.130;11.602;2022-12-18T07:14:44;-3.70;99.90
37938;DHT22;23763;48.130;11.602;2022-12-18T07:17:09;-3.60;99.90
37938;DHT22;23763;48.130;11.602;2022-12-18T07:19:35;-3.70;99.90
37938;DHT22;23763;48.130;11.602;2022-12-18T07:22:01;-3.70;99.90
37938;DHT22;23763;48.130;11.602;2022-12-18T07:24:27;-3.80;99.90
37938;DHT22;23763;48.130;11.602;2022-12-18T07:26:53;-3.80;99.90
37938;DHT22;23763;48.130;11.602;2022-12-18T07:29:18;-3.70;99.90
37938;DHT22;23763;48.130;11.602;2022-12-18T07:31:44;-3.70;99.90
37938;DHT22;23763;48.130;11.602;2022-12-18T07:34:13;-3.70;99.90
37938;DHT22;23763;48.130;11.602;2022-12-18T07:36:40;-3.80;99.90
37938;DHT22;23763;48.130;11.602;2022-12-18T07:39:06;-3.90;99.90
37938;DHT22;23763;48.130;11.602;2022-12-18T07:41:31;-3.80;99.90
37938;DHT22;23763;48.130;11.602;2022-12-18T07:44:00;-3.90;99.90
37938;DHT22;23763;48.130;11.602;2022-12-18T07:46:25;-3.80;99.90
37938;DHT22;23763;48.130;11.602;2022-12-18T07:48:51;-4.00;99.90
37938;DHT22;23763;48.130;11.602;2022-12-18T07:51:18;-4.00;99.90
37938;DHT22;23763;48.130;11.602;2022-12-18T07:53:47;-4.00;99.90
37938;DHT22;23763;48.130;11.602;2022-12-18T07:56:13;-4.10;99.90
37938;DHT22;23763;48.130;11.602;2022-12-18T07:58:39;-4.00;99.90
37938;DHT22;23763;48.130;11.602;2022-12-18T08:01:09;-3.90;99.90
37938;DHT22;23763;48.130;11.602;2022-12-18T08:03:36;-3.70;99.90
37938;DHT22;23763;48.130;11.602;2022-12-18T08:06:04;-3.70;99.90
37938;DHT22;23763;48.130;11.602;2022-12-18T08:08:31;-3.80;99.90
37938;DHT22;23763;48.130;11.602;2022-12-18T08:10:57;-3.90;99.90
37938;DHT22;23763;48.130;11.602;2022-12-18T08:13:23;-4.00;99.90
37938;DHT22;23763;48.130;11.602;2022-12-18T08:16:00;-3.90;99.90
37938;DHT22;23763;48.130;11.602;2022-12-18T08:18:26;-3.60;99.90
37938;DHT22;23763;48.130;11.602;2022-12-18T08:21:14;-3.40;99.90
37938;DHT22;23763;48.130;11.602;2022-12-18T08:23:40;-3.50;99.90
37938;DHT22;23763;48.130;11.602;2022-12-18T08:26:06;-3.60;99.90
37938;DHT22;23763;48.130;11.602;2022-12-18T08:28:31;-3.70;99.90
37938;DHT22;23763;48.130;11.602;2022-12-18T08:33:34;-3.70;99.90
37938;DHT22;23763;48.130;11.602;2022-12-18T08:36:02;-3.70;99.90
37938;DHT22;23763;48.130;11.602;2022-12-18T08:38:27;-3.60;99.90
37938;DHT22;23763;48.130;11.602;2022-12-18T08:43:26;-3.70;99.90
37938;DHT22;23763;48.130;11.602;2022-12-18T08:46:11;-3.70;99.90
37938;DHT22;23763;48.130;11.602;2022-12-18T08:48:36;-3.40;99.90
37938;DHT22;23763;48.130;11.602;2022-12-18T08:51:02;-3.40;99.90
37938;DHT22;23763;48.130;11.602;2022-12-18T08:53:27;-3.60;99.90
37938;DHT22;23763;48.130;11.602;2022-12-18T08:56:11;-3.60;99.90
37938;DHT22;23763;48.130;11.602;2022-12-18T08:58:41;-3.80;99.90
37938;DHT22;23763;48.130;11.602;2022-12-18T09:01:10;-3.90;99.90
37938;DHT22;23763;48.130;11.602;2022-12-18T09:03:36;-3.80;99.90
37938;DHT22;23763;48.130;11.602;2022-12-18T09:06:02;-3.90;99.90
37938;DHT22;23763;48.130;11.602;2022-12-18T09:08:28;-3.90;99.90
37938;DHT22;23763;48.130;11.602;2022-12-18T09:10:54;-3.80;99.90
37938;DHT22;23763;48.130;11.602;2022-12-18T09:13:20;-3.70;99.90
37938;DHT22;23763;48.130;11.602;2022-12-18T09:15:51;-3.40;99.90
37938;DHT22;23763;48.130;11.602;2022-12-18T09:18:19;-3.50;99.90
37938;DHT22;23763;48.130;11.602;2022-12-18T09:20:45;-3.60;99.90
37938;DHT22;23763;48.130;11.602;2022-12-18T09:23:11;-3.40;99.90
37938;DHT22;23763;48.130;11.602;2022-12-18T09:25:37;-3.50;99.90
37938;DHT22;23763;48.130;11.602;2022-12-18T09:28:09;-3.40;99.90
37938;DHT22;23763;48.130;11.602;2022-12-18T09:30:38;-3.30;99.90
37938;DHT22;23763;48.130;11.602;2022-12-18T09:33:03;-3.20;99.90
37938;DHT22;23763;48.130;11.602;2022-12-18T09:35:29;-3.20;99.90
37938;DHT22;23763;48.130;11.602;2022-12-18T09:37:54;-3.20;99.90
37938;DHT22;23763;48.130;11.602;2022-12-18T09:40:24;-3.20;99.90
37938;DHT22;23763;48.130;11.602;2022-12-18T09:43:02;-3.10;99.90
37938;DHT22;23763;48.130;11.602;2022-12-18T09:45:31;-3.10;99.90
37938;DHT22;23763;48.130;11.602;2022-12-18T09:48:03;-3.10;99.90
37938;DHT22;23763;48.130;11.602;2022-12-18T09:50:38;-3.20;99.90
37938;DHT22;23763;48.130;11.602;2022-12-18T09:53:10;-3.40;99.90
37938;DHT22;23763;48.130;11.602;2022-12-18T09:55:41;-3.50;99.90
37938;DHT22;23763;48.130;11.602;2022-12-18T09:58:19;-3.40;99.90
37938;DHT22;23763;48.130;11.602;2022-12-18T10:00:46;-3.70;99.90
37938;DHT22;23763;48.130;11.602;2022-12-18T10:03:13;-3.40;99.90
37938;DHT22;23763;48.130;11.602;2022-12-18T10:08:17;-3.30;99.90
37938;DHT22;23763;48.130;11.602;2022-12-18T10:10:50;-3.60;99.90
37938;DHT22;23763;48.130;11.602;2022-12-18T10:13:45;-3.40;99.90
37938;DHT22;23763;48.130;11.602;2022-12-18T10:16:17;-3.40;99.90
37938;DHT22;23763;48.130;11.602;2022-12-18T10:19:18;-3.10;99.90
37938;DHT22;23763;48.130;11.602;2022-12-18T10:24:55;-2.70;99.90
37938;DHT22;23763;48.130;11.602;2022-12-18T10:27:26;-2.80;99.90
37938;DHT22;23763;48.130;11.602;2022-12-18T10:29:52;-2.90;99.90
37938;DHT22;23763;48.130;11.602;2022-12-18T10:32:21;-3.00;99.90
37938;DHT22;23763;48.130;11.602;2022-12-18T10:34:52;-2.90;99.90
37938;DHT22;23763;48.130;11.602;2022-12-18T10:37:21;-2.70;99.90
37938;DHT22;23763;48.130;11.602;2022-12-18T10:42:34;-3.10;99.90
37938;DHT22;23763;48.130;11.602;2022-12-18T10:45:20;-3.20;99.90
37938;DHT22;23763;48.130;11.602;2022-12-18T10:47:49;-3.20;99.90
37938;DHT22;23763;48.130;11.602;2022-12-18T10:50:31;-3.10;99.90
37938;DHT22;23763;48.130;11.602;2022-12-18T10:52:59;-3.20;99.90
37938;DHT22;23763;48.130;11.602;2022-12-18T10:55:34;-3.10;99.90
37938;DHT22;23763;48.130;11.602;2022-12-18T10:58:37;-3.00;99.90
37938;DHT22;23763;48.130;11.602;2022-12-18T11:01:09;-2.80;99.90
37938;DHT22;23763;48.130;11.602;2022-12-18T11:06:23;-3.00;99.90
37938;DHT22;23763;48.130;11.602;2022-12-18T11:12:02;-2.90;99.90
37938;DHT22;23763;48.130;11.602;2022-12-18T11:14:32;-2.80;99.90
37938;DHT22;23763;48.130;11.602;2022-12-18T11:16:59;-2.70;99.90
37938;DHT22;23763;48.130;11.602;2022-12-18T11:19:37;-2.70;99.90
37938;DHT22;23763;48.130;11.602;2022-12-18T11:22:19;-2.80;99.90
37938;DHT22;23763;48.130;11.602;2022-12-18T11:24:53;-3.00;99.90
37938;DHT22;23763;48.130;11.602;2022-12-18T11:27:20;-2.80;99.90
37938;DHT22;23763;48.130;11.602;2022-12-18T11:29:46;-2.50;99.90
37938;DHT22;23763;48.130;11.602;2022-12-18T11:34:42;-2.30;99.90
37938;DHT22;23763;48.130;11.602;2022-12-18T11:37:11;-2.20;99.90
37938;DHT22;23763;48.130;11.602;2022-12-18T11:39:45;-2.30;99.90
37938;DHT22;23763;48.130;11.602;2022-12-18T11:42:19;-2.30;99.90
37938;DHT22;23763;48.130;11.602;2022-12-18T11:44:50;-2.30;99.90
37938;DHT22;23763;48.130;11.602;2022-12-18T11:47:39;-2.30;99.90
37938;DHT22;23763;48.130;11.602;2022-12-18T11:50:18;-2.10;99.90
37938;DHT22;23763;48.130;11.602;2022-12-18T11:52:44;-2.30;99.90
37938;DHT22;23763;48.130;11.602;2022-12-18T11:55:15;-2.40;99.90
37938;DHT22;23763;48.130;11.602;2022-12-18T12:00:22;-2.40;99.90
37938;DHT22;23763;48.130;11.602;2022-12-18T12:03:12;-2.60;99.90
37938;DHT22;23763;48.130;11.602;2022-12-18T12:06:03;-2.60;99.90
37938;DHT22;23763;48.130;11.602;2022-12-18T12:19:58;-2.40;99.90
37938;DHT22;23763;48.130;11.602;2022-12-18T12:31:24;-2.50;99.90
37938;DHT22;23763;48.130;11.602;2022-12-18T12:34:26;-2.50;99.90
37938;DHT22;23763;48.130;11.602;2022-12-18T12:39:47;-2.60;99.90
37938;DHT22;23763;48.130;11.602;2022-12-18T12:42:35;-2.60;99.90
37938;DHT22;23763;48.130;11.602;2022-12-18T12:45:27;-2.50;99.90
37938;DHT22;23763;48.130;11.602;2022-12-18T12:47:54;-2.80;99.90
37938;DHT22;23763;48.130;11.602;2022-12-18T12:50:21;-2.80;99.90
37938;DHT22;23763;48.130;11.602;2022-12-18T12:52:51;-2.70;99.90
37938;DHT22;23763;48.130;11.602;2022-12-18T12:55:25;-2.80;99.90
37938;DHT22;23763;48.130;11.602;2022-12-18T12:58:07;-2.70;99.90
37938;DHT22;23763;48.130;11.602;2022-12-18T13:00:55;-2.50;99.90
37938;DHT22;23763;48.130;11.602;2022-12-18T13:05:58;-2.40;99.90
37938;DHT22;23763;48.130;11.602;2022-12-18T13:08:30;-2.30;99.90
37938;DHT22;23763;48.130;11.602;2022-12-18T13:10:58;-2.70;99.90
37938;DHT22;23763;48.130;11.602;2022-12-18T13:13:53;-2.60;99.90
37938;DHT22;23763;48.130;11.602;2022-12-18T13:16:24;-2.40;99.90
37938;DHT22;23763;48.130;11.602;2022-12-18T13:18:52;-2.40;99.90
37938;DHT22;23763;48.130;11.602;2022-12-18T13:21:30;-2.40;99.90
37938;DHT22;23763;48.130;11.602;2022-12-18T13:24:15;-2.60;99.90
37938;DHT22;23763;48.130;11.602;2022-12-18T13:26:41;-2.80;99.90
37938;DHT22;23763;48.130;11.602;2022-12-18T13:29:06;-2.60;99.90
37938;DHT22;23763;48.130;11.602;2022-12-18T13:34:27;-2.40;99.90
37938;DHT22;23763;48.130;11.602;2022-12-18T13:36:57;-2.40;99.90
37938;DHT22;23763;48.130;11.602;2022-12-18T13:39:41;-2.40;99.90
37938;DHT22;23763;48.130;11.602;2022-12-18T13:44:35;-2.20;99.90
37938;DHT22;23763;48.130;11.602;2022-12-18T13:47:03;-2.20;99.90
37938;DHT22;23763;48.130;11.602;2022-12-18T13:49:36;-2.20;99.90
37938;DHT22;23763;48.130;11.602;2022-12-18T13:52:03;-2.60;99.90
37938;DHT22;23763;48.130;11.602;2022-12-18T13:54:40;-2.60;99.90
37938;DHT22;23763;48.130;11.602;2022-12-18T13:57:35;-2.70;99.90
37938;DHT22;23763;48.130;11.602;2022-12-18T14:02:48;-3.00;99.90
37938;DHT22;23763;48.130;11.602;2022-12-18T14:05:34;-2.90;99.90
37938;DHT22;23763;48.130;11.602;2022-12-18T14:08:14;-3.00;99.90
37938;DHT22;23763;48.130;11.602;2022-12-18T14:10:45;-3.10;99.90
37938;DHT22;23763;48.130;11.602;2022-12-18T14:13:27;-3.20;99.90
37938;DHT22;23763;48.130;11.602;2022-12-18T14:15:54;-3.20;99.90
37938;DHT22;23763;48.130;11.602;2022-12-18T14:18:27;-3.30;99.90
37938;DHT22;23763;48.130;11.602;2022-12-18T14:20:57;-3.30;99.90
37938;DHT22;23763;48.130;11.602;2022-12-18T14:25:55;-3.30;99.90
37938;DHT22;23763;48.130;11.602;2022-12-18T14:28:21;-3.10;99.90
37938;DHT22;23763;48.130;11.602;2022-12-18T14:30:51;-3.20;99.90
37938;DHT22;23763;48.130;11.602;2022-12-18T14:33:25;-3.20;99.90
37938;DHT22;23763;48.130;11.602;2022-12-18T14:36:01;-3.20;99.90
37938;DHT22;23763;48.130;11.602;2022-12-18T14:38:37;-3.20;99.90
37938;DHT22;23763;48.130;11.602;2022-12-18T14:41:10;-3.20;99.90
37938;DHT22;23763;48.130;11.602;2022-12-18T14:43:39;-3.40;99.90
37938;DHT22;23763;48.130;11.602;2022-12-18T14:46:25;-3.50;99.90
37938;DHT22;23763;48.130;11.602;2022-12-18T14:48:54;-3.50;99.90
37938;DHT22;23763;48.130;11.602;2022-12-18T14:51:28;-3.40;99.90
37938;DHT22;23763;48.130;11.602;2022-12-18T14:54:03;-3.40;99.90
37938;DHT22;23763;48.130;11.602;2022-12-18T14:56:42;-3.40;99.90
37938;DHT22;23763;48.130;11.602;2022-12-18T14:59:24;-3.40;99.90
37938;DHT22;23763;48.130;11.602;2022-12-18T15:02:15;-3.40;99.90
37938;DHT22;23763;48.130;11.602;2022-12-18T15:04:44;-3.30;99.90
37938;DHT22;23763;48.130;11.602;2022-12-18T15:07:16;-3.30;99.90
37938;DHT22;23763;48.130;11.602;2022-12-18T15:10:24;-3.30;99.90
37938;DHT22;23763;48.130;11.602;2022-12-18T15:20:55;-3.70;99.90
37938;DHT22;23763;48.130;11.602;2022-12-18T15:23:25;-3.70;99.90
37938;DHT22;23763;48.130;11.602;2022-12-18T15:26:03;-3.50;99.90
37938;DHT22;23763;48.130;11.602;2022-12-18T15:28:37;-3.70;99.90
37938;DHT22;23763;48.130;11.602;2022-12-18T15:33:59;-3.90;99.90
37938;DHT22;23763;48.130;11.602;2022-12-18T15:36:26;-3.80;99.90
37938;DHT22;23763;48.130;11.602;2022-12-18T15:39:02;-3.90;99.90
37938;DHT22;23763;48.130;11.602;2022-12-18T15:41:31;-3.80;99.90
37938;DHT22;23763;48.130;11.602;2022-12-18T15:43:59;-3.80;99.90
37938;DHT22;23763;48.130;11.602;2022-12-18T15:46:25;-3.80;99.90
37938;DHT22;23763;48.130;11.602;2022-12-18T15:48:56;-3.90;99.90
37938;DHT22;23763;48.130;11.602;2022-12-18T15:51:23;-3.80;99.90
37938;DHT22;23763;48.130;11.602;2022-12-18T15:53:52;-3.70;99.90
37938;DHT22;23763;48.130;11.602;2022-12-18T15:56:19;-3.60;99.90
37938;DHT22;23763;48.130;11.602;2022-12-18T15:59:11;-3.70;99.90
37938;DHT22;23763;48.130;11.602;2022-12-18T16:01:38;-3.70;99.90
37938;DHT22;23763;48.130;11.602;2022-12-18T16:04:04;-3.60;99.90
37938;DHT22;23763;48.130;11.602;2022-12-18T16:06:29;-3.60;99.90
37938;DHT22;23763;48.130;11.602;2022-12-18T16:08:55;-3.60;99.90
37938;DHT22;23763;48.130;11.602;2022-12-18T16:11:22;-3.80;99.90
37938;DHT22;23763;48.130;11.602;2022-12-18T16:14:23;-3.80;99.90
37938;DHT22;23763;48.130;11.602;2022-12-18T16:16:53;-3.70;99.90
37938;DHT22;23763;48.130;11.602;2022-12-18T16:19:20;-3.50;99.90
37938;DHT22;23763;48.130;11.602;2022-12-18T16:21:48;-3.50;99.90
37938;DHT22;23763;48.130;11.602;2022-12-18T16:24:25;-3.50;99.90
37938;DHT22;23763;48.130;11.602;2022-12-18T16:26:52;-3.50;99.90
37938;DHT22;23763;48.130;11.602;2022-12-18T16:29:19;-3.40;99.90
37938;DHT22;23763;48.130;11.602;2022-12-18T16:31:58;-3.40;99.90
37938;DHT22;23763;48.130;11.602;2022-12-18T16:34:25;-3.60;99.90
37938;DHT22;23763;48.130;11.602;2022-12-18T16:36:55;-3.70;99.90
37938;DHT22;23763;48.130;11.602;2022-12-18T16:39:21;-3.70;99.90
37938;DHT22;23763;48.130;11.602;2022-12-18T16:41:47;-3.80;99.90
37938;DHT22;23763;48.130;11.602;2022-12-18T16:44:13;-3.70;99.90
37938;DHT22;23763;48.130;11.602;2022-12-18T16:46:39;-3.70;99.90
37938;DHT22;23763;48.130;11.602;2022-12-18T16:49:08;-3.70;99.90
37938;DHT22;23763;48.130;11.602;2022-12-18T16:51:34;-3.60;99.90
37938;DHT22;23763;48.130;11.602;2022-12-18T16:53:59;-3.60;99.90
37938;DHT22;23763;48.130;11.602;2022-12-18T16:56:28;-3.60;99.90
37938;DHT22;23763;48.130;11.602;2022-12-18T16:58:56;-3.50;99.90
37938;DHT22;23763;48.130;11.602;2022-12-18T17:01:23;-3.60;99.90
37938;DHT22;23763;48.130;11.602;2022-12-18T17:03:57;-3.70;99.90
37938;DHT22;23763;48.130;11.602;2022-12-18T17:06:24;-3.80;99.90
37938;DHT22;23763;48.130;11.602;2022-12-18T17:09:02;-3.90;99.90